KOBE/OBE METAR and TAF weather

Enter ICAO airport designator
Station Type Date Time Source
KOBE METAR 2020/04/04 04:55 UTC NOAA

KOBE 040455Z AUTO 00000KT 10SM CLR 16/13 A2998 RMK AO2


Station Type Date Time Source
KOBE Decoded METAR 2020/04/04 04:55 UTC NOAA

Okeechobee County Airport, FL, United States (KOBE) 27-15-60N 080-51-02W
Apr 04, 2020 - 12:55 AM EDT / 2020.04.04 0455 UTC
Wind: Calm:0
Visibility: 10 mile(s):0
Sky conditions: clear
Temperature: 60 F (16 C)
Dew Point: 55 F (13 C)
Relative Humidity: 82%
Pressure (altimeter): 29.98 in. Hg (1015 hPa)
ob: KOBE 040455Z AUTO 00000KT 10SM CLR 16/13 A2998 RMK AO2
cycle: 5

Station Type Date Time Source
KOBE TAF UTC NOAA

Error!

Example: see airport list